sensor_id;sensor_type;location;lat;lon;timestamp;pressure;altitude;pressure_sealevel;temperature;humidity
51297;BME280;37380;45.186;9.792;2024-02-21T00:01:17;102131.22;;;6.59;91.92
51297;BME280;37380;45.186;9.792;2024-02-21T00:03:44;102119.16;;;6.53;91.96
51297;BME280;37380;45.186;9.792;2024-02-21T00:06:11;102118.94;;;6.48;91.65
51297;BME280;37380;45.186;9.792;2024-02-21T00:08:38;102119.41;;;6.59;91.54
51297;BME280;37380;45.186;9.792;2024-02-21T00:11:05;102114.09;;;6.77;90.72
51297;BME280;37380;45.186;9.792;2024-02-21T00:13:32;102111.31;;;6.77;89.30
51297;BME280;37380;45.186;9.792;2024-02-21T00:16:00;102110.66;;;6.60;88.71
51297;BME280;37380;45.186;9.792;2024-02-21T00:18:28;102103.00;;;6.52;88.11
51297;BME280;37380;45.186;9.792;2024-02-21T00:20:56;102100.22;;;6.39;89.24
51297;BME280;37380;45.186;9.792;2024-02-21T00:23:23;102097.22;;;6.34;88.09
51297;BME280;37380;45.186;9.792;2024-02-21T00:25:50;102108.16;;;6.25;88.40
51297;BME280;37380;45.186;9.792;2024-02-21T00:28:17;102092.50;;;6.05;88.13
51297;BME280;37380;45.186;9.792;2024-02-21T00:30:45;102098.84;;;6.19;90.09
51297;BME280;37380;45.186;9.792;2024-02-21T00:33:14;102103.91;;;6.07;89.06
51297;BME280;37380;45.186;9.792;2024-02-21T00:35:41;102107.31;;;5.99;89.88
51297;BME280;37380;45.186;9.792;2024-02-21T00:38:08;102108.19;;;5.96;90.09
51297;BME280;37380;45.186;9.792;2024-02-21T00:40:35;102112.16;;;5.95;91.00
51297;BME280;37380;45.186;9.792;2024-02-21T00:43:02;102104.88;;;6.01;91.42
51297;BME280;37380;45.186;9.792;2024-02-21T00:45:29;102104.56;;;5.99;91.89
51297;BME280;37380;45.186;9.792;2024-02-21T00:47:56;102105.94;;;5.91;90.93
51297;BME280;37380;45.186;9.792;2024-02-21T00:50:23;102097.34;;;5.73;91.38
51297;BME280;37380;45.186;9.792;2024-02-21T00:52:51;102100.88;;;5.89;92.24
51297;BME280;37380;45.186;9.792;2024-02-21T00:55:18;102103.34;;;5.84;91.98
51297;BME280;37380;45.186;9.792;2024-02-21T00:57:46;102105.16;;;5.90;91.32
51297;BME280;37380;45.186;9.792;2024-02-21T01:00:13;102110.69;;;5.90;91.20
51297;BME280;37380;45.186;9.792;2024-02-21T01:02:40;102119.19;;;5.67;88.69
51297;BME280;37380;45.186;9.792;2024-02-21T01:05:07;102101.94;;;5.63;89.75
51297;BME280;37380;45.186;9.792;2024-02-21T01:07:34;102104.59;;;5.67;90.04
51297;BME280;37380;45.186;9.792;2024-02-21T01:10:01;102102.09;;;5.72;90.88
51297;BME280;37380;45.186;9.792;2024-02-21T01:12:28;102097.38;;;6.01;91.19
51297;BME280;37380;45.186;9.792;2024-02-21T01:14:55;102096.19;;;5.86;90.41
51297;BME280;37380;45.186;9.792;2024-02-21T01:17:22;102103.47;;;5.80;90.10
51297;BME280;37380;45.186;9.792;2024-02-21T01:19:49;102097.41;;;5.85;89.74
51297;BME280;37380;45.186;9.792;2024-02-21T01:22:16;102102.44;;;5.74;89.92
51297;BME280;37380;45.186;9.792;2024-02-21T01:24:43;102098.47;;;5.59;89.56
51297;BME280;37380;45.186;9.792;2024-02-21T01:27:10;102101.59;;;5.61;90.69
51297;BME280;37380;45.186;9.792;2024-02-21T01:29:38;102099.38;;;5.56;90.25
51297;BME280;37380;45.186;9.792;2024-02-21T01:32:05;102101.09;;;5.50;90.38
51297;BME280;37380;45.186;9.792;2024-02-21T01:34:32;102102.75;;;5.15;90.24
51297;BME280;37380;45.186;9.792;2024-02-21T01:36:59;102103.19;;;5.30;91.04
51297;BME280;37380;45.186;9.792;2024-02-21T01:39:31;102104.91;;;5.24;91.45
51297;BME280;37380;45.186;9.792;2024-02-21T01:41:58;102110.59;;;5.17;90.67
51297;BME280;37380;45.186;9.792;2024-02-21T01:44:25;102103.00;;;5.05;90.50
51297;BME280;37380;45.186;9.792;2024-02-21T01:46:52;102099.13;;;5.02;90.31
51297;BME280;37380;45.186;9.792;2024-02-21T01:49:20;102097.50;;;4.89;90.67
51297;BME280;37380;45.186;9.792;2024-02-21T01:51:48;102099.03;;;4.90;91.27
51297;BME280;37380;45.186;9.792;2024-02-21T01:54:17;102100.53;;;4.94;91.70
51297;BME280;37380;45.186;9.792;2024-02-21T01:56:46;102087.03;;;4.80;91.44
51297;BME280;37380;45.186;9.792;2024-02-21T01:59:15;102094.34;;;4.70;92.15
51297;BME280;37380;45.186;9.792;2024-02-21T02:01:44;102088.75;;;4.74;92.06
51297;BME280;37380;45.186;9.792;2024-02-21T02:04:11;102089.47;;;4.94;92.24
51297;BME280;37380;45.186;9.792;2024-02-21T02:06:38;102082.84;;;4.92;92.36
51297;BME280;37380;45.186;9.792;2024-02-21T02:09:06;102090.38;;;4.71;92.03
51297;BME280;37380;45.186;9.792;2024-02-21T02:11:33;102085.50;;;4.79;92.24
51297;BME280;37380;45.186;9.792;2024-02-21T02:14:00;102085.06;;;4.81;91.71
51297;BME280;37380;45.186;9.792;2024-02-21T02:16:27;102083.69;;;4.72;91.49
51297;BME280;37380;45.186;9.792;2024-02-21T02:18:55;102077.53;;;4.65;92.05
51297;BME280;37380;45.186;9.792;2024-02-21T02:21:39;102072.38;;;4.67;91.50
51297;BME280;37380;45.186;9.792;2024-02-21T02:24:07;102070.03;;;4.65;91.64
51297;BME280;37380;45.186;9.792;2024-02-21T02:26:34;102074.50;;;4.59;91.02
51297;BME280;37380;45.186;9.792;2024-02-21T02:29:02;102074.50;;;4.59;91.67
51297;BME280;37380;45.186;9.792;2024-02-21T02:31:29;102068.75;;;4.70;92.23
51297;BME280;37380;45.186;9.792;2024-02-21T02:33:56;102065.38;;;4.62;91.33
51297;BME280;37380;45.186;9.792;2024-02-21T02:36:23;102066.56;;;4.61;91.53
51297;BME280;37380;45.186;9.792;2024-02-21T02:38:50;102070.22;;;4.58;91.67
51297;BME280;37380;45.186;9.792;2024-02-21T02:41:17;102080.19;;;4.68;92.55
51297;BME280;37380;45.186;9.792;2024-02-21T02:43:44;102077.78;;;4.70;93.09
51297;BME280;37380;45.186;9.792;2024-02-21T02:46:11;102088.16;;;4.83;92.34
51297;BME280;37380;45.186;9.792;2024-02-21T02:48:38;102090.69;;;4.93;91.72
51297;BME280;37380;45.186;9.792;2024-02-21T02:51:05;102092.53;;;4.80;92.46
51297;BME280;37380;45.186;9.792;2024-02-21T02:53:33;102090.38;;;4.71;93.63
51297;BME280;37380;45.186;9.792;2024-02-21T02:56:00;102094.34;;;4.70;94.10
51297;BME280;37380;45.186;9.792;2024-02-21T02:58:28;102089.72;;;4.67;93.87
51297;BME280;37380;45.186;9.792;2024-02-21T03:00:55;102091.97;;;4.72;93.89
51297;BME280;37380;45.186;9.792;2024-02-21T03:03:22;102083.84;;;4.82;93.49
51297;BME280;37380;45.186;9.792;2024-02-21T03:05:49;102079.47;;;4.84;93.05
51297;BME280;37380;45.186;9.792;2024-02-21T03:08:17;102087.91;;;4.93;92.34
51297;BME280;37380;45.186;9.792;2024-02-21T03:10:44;102084.38;;;4.93;92.53
51297;BME280;37380;45.186;9.792;2024-02-21T03:13:11;102088.69;;;4.94;89.82
51297;BME280;37380;45.186;9.792;2024-02-21T03:15:39;102080.75;;;4.80;89.11
51297;BME280;37380;45.186;9.792;2024-02-21T03:18:06;102091.97;;;4.72;89.32
51297;BME280;37380;45.186;9.792;2024-02-21T03:20:33;102088.81;;;4.70;88.70
51297;BME280;37380;45.186;9.792;2024-02-21T03:23:00;102084.53;;;4.69;88.80
51297;BME280;37380;45.186;9.792;2024-02-21T03:25:27;102087.44;;;4.62;88.79
51297;BME280;37380;45.186;9.792;2024-02-21T03:27:54;102093.75;;;4.63;90.00
51297;BME280;37380;45.186;9.792;2024-02-21T03:30:21;102091.84;;;4.60;90.54
51297;BME280;37380;45.186;9.792;2024-02-21T03:32:48;102089.56;;;4.39;90.41
51297;BME280;37380;45.186;9.792;2024-02-21T03:35:15;102104.72;;;4.47;90.30
51297;BME280;37380;45.186;9.792;2024-02-21T03:37:42;102098.38;;;4.30;91.24
51297;BME280;37380;45.186;9.792;2024-02-21T03:40:11;102099.84;;;4.35;91.21
51297;BME280;37380;45.186;9.792;2024-02-21T03:42:39;102095.47;;;4.37;91.90
51297;BME280;37380;45.186;9.792;2024-02-21T03:45:07;102096.88;;;4.45;93.11
51297;BME280;37380;45.186;9.792;2024-02-21T03:47:34;102104.69;;;4.66;93.05
51297;BME280;37380;45.186;9.792;2024-02-21T03:50:01;102093.97;;;4.52;92.75
51297;BME280;37380;45.186;9.792;2024-02-21T03:52:28;102088.91;;;4.67;92.80
51297;BME280;37380;45.186;9.792;2024-02-21T03:54:55;102095.69;;;4.46;92.74
51297;BME280;37380;45.186;9.792;2024-02-21T03:57:22;102089.72;;;4.67;93.60
51297;BME280;37380;45.186;9.792;2024-02-21T03:59:52;102085.66;;;4.72;92.23
51297;BME280;37380;45.186;9.792;2024-02-21T04:02:19;102089.69;;;4.51;92.63
51297;BME280;37380;45.186;9.792;2024-02-21T04:04:46;102090.56;;;4.64;92.59
51297;BME280;37380;45.186;9.792;2024-02-21T04:07:16;102084.88;;;4.71;91.96
51297;BME280;37380;45.186;9.792;2024-02-21T04:09:43;102086.31;;;4.60;92.09
51297;BME280;37380;45.186;9.792;2024-02-21T04:12:10;102100.31;;;4.69;91.42
51297;BME280;37380;45.186;9.792;2024-02-21T04:14:37;102096.88;;;4.45;92.16
51297;BME280;37380;45.186;9.792;2024-02-21T04:17:08;102102.59;;;4.54;93.23
51297;BME280;37380;45.186;9.792;2024-02-21T04:19:35;102102.84;;;4.44;93.23
51297;BME280;37380;45.186;9.792;2024-02-21T04:22:03;102109.97;;;4.41;93.28
51297;BME280;37380;45.186;9.792;2024-02-21T04:24:30;102112.66;;;4.45;94.05
51297;BME280;37380;45.186;9.792;2024-02-21T04:26:56;102116.81;;;4.53;93.79
51297;BME280;37380;45.186;9.792;2024-02-21T04:29:23;102119.88;;;4.58;92.84
51297;BME280;37380;45.186;9.792;2024-02-21T04:31:51;102130.63;;;4.53;93.98
51297;BME280;37380;45.186;9.792;2024-02-21T04:34:17;102126.06;;;4.62;93.73
51297;BME280;37380;45.186;9.792;2024-02-21T04:36:45;102126.41;;;4.64;93.93
51297;BME280;37380;45.186;9.792;2024-02-21T04:39:12;102114.19;;;4.65;94.10
51297;BME280;37380;45.186;9.792;2024-02-21T04:41:39;102105.94;;;4.82;94.29
51297;BME280;37380;45.186;9.792;2024-02-21T04:44:06;102108.88;;;4.91;93.60
51297;BME280;37380;45.186;9.792;2024-02-21T04:46:33;102108.03;;;4.94;93.31
51297;BME280;37380;45.186;9.792;2024-02-21T04:49:00;102099.69;;;4.61;94.12
51297;BME280;37380;45.186;9.792;2024-02-21T04:51:27;102105.53;;;4.63;94.58
51297;BME280;37380;45.186;9.792;2024-02-21T04:53:54;102107.41;;;4.50;95.00
51297;BME280;37380;45.186;9.792;2024-02-21T04:56:21;102107.25;;;4.57;94.39
51297;BME280;37380;45.186;9.792;2024-02-21T04:58:48;102095.22;;;4.67;94.93
51297;BME280;37380;45.186;9.792;2024-02-21T05:01:15;102101.19;;;4.82;95.12
51297;BME280;37380;45.186;9.792;2024-02-21T05:03:42;102105.44;;;4.51;93.64
51297;BME280;37380;45.186;9.792;2024-02-21T05:06:09;102106.41;;;4.60;94.60
51297;BME280;37380;45.186;9.792;2024-02-21T05:08:36;102103.56;;;4.64;95.34
51297;BME280;37380;45.186;9.792;2024-02-21T05:11:03;102101.41;;;4.55;95.31
51297;BME280;37380;45.186;9.792;2024-02-21T05:13:30;102091.84;;;4.60;94.95
51297;BME280;37380;45.186;9.792;2024-02-21T05:15:57;102085.50;;;4.43;95.05
51297;BME280;37380;45.186;9.792;2024-02-21T05:18:28;102085.53;;;4.59;94.56
51297;BME280;37380;45.186;9.792;2024-02-21T05:20:55;102089.84;;;4.25;94.69
51297;BME280;37380;45.186;9.792;2024-02-21T05:23:22;102090.91;;;4.11;94.84
51297;BME280;37380;45.186;9.792;2024-02-21T05:25:49;102094.22;;;4.42;96.11
51297;BME280;37380;45.186;9.792;2024-02-21T05:28:16;102099.75;;;4.42;95.85
51297;BME280;37380;45.186;9.792;2024-02-21T05:30:43;102091.38;;;4.26;95.31
51297;BME280;37380;45.186;9.792;2024-02-21T05:33:10;102100.84;;;4.44;95.64
51297;BME280;37380;45.186;9.792;2024-02-21T05:35:37;102087.34;;;4.30;94.98
51297;BME280;37380;45.186;9.792;2024-02-21T05:38:04;102105.97;;;4.26;94.22
51297;BME280;37380;45.186;9.792;2024-02-21T05:40:38;102104.44;;;4.05;94.27
51297;BME280;37380;45.186;9.792;2024-02-21T05:43:05;102112.13;;;4.14;94.47
51297;BME280;37380;45.186;9.792;2024-02-21T05:45:32;102116.94;;;4.30;94.99
51297;BME280;37380;45.186;9.792;2024-02-21T05:47:59;102126.81;;;4.27;94.78
51297;BME280;37380;45.186;9.792;2024-02-21T05:50:26;102131.31;;;4.37;94.88
51297;BME280;37380;45.186;9.792;2024-02-21T05:52:55;102119.25;;;4.31;94.80
51297;BME280;37380;45.186;9.792;2024-02-21T05:55:25;102119.06;;;4.22;94.29
51297;BME280;37380;45.186;9.792;2024-02-21T05:57:53;102127.13;;;4.13;94.30
51297;BME280;37380;45.186;9.792;2024-02-21T06:00:21;102125.81;;;3.98;93.95
51297;BME280;37380;45.186;9.792;2024-02-21T06:02:48;102127.94;;;3.90;95.04
51297;BME280;37380;45.186;9.792;2024-02-21T06:05:16;102115.34;;;3.70;94.82
51297;BME280;37380;45.186;9.792;2024-02-21T06:07:43;102119.66;;;3.90;95.65
51297;BME280;37380;45.186;9.792;2024-02-21T06:10:11;102111.69;;;3.96;95.10
51297;BME280;37380;45.186;9.792;2024-02-21T06:12:38;102118.88;;;3.90;95.13
51297;BME280;37380;45.186;9.792;2024-02-21T06:15:05;102124.59;;;3.99;94.83
51297;BME280;37380;45.186;9.792;2024-02-21T06:17:32;102135.22;;;4.00;95.31
51297;BME280;37380;45.186;9.792;2024-02-21T06:20:00;102129.94;;;4.29;95.52
51297;BME280;37380;45.186;9.792;2024-02-21T06:22:27;102139.81;;;4.27;95.47
51297;BME280;37380;45.186;9.792;2024-02-21T06:24:54;102136.50;;;4.16;94.71
51297;BME280;37380;45.186;9.792;2024-02-21T06:27:21;102145.19;;;4.14;94.51
51297;BME280;37380;45.186;9.792;2024-02-21T06:29:48;102140.78;;;3.97;94.60
51297;BME280;37380;45.186;9.792;2024-02-21T06:32:15;102139.75;;;4.11;95.49
51297;BME280;37380;45.186;9.792;2024-02-21T06:34:42;102138.97;;;4.10;95.54
51297;BME280;37380;45.186;9.792;2024-02-21T06:37:09;102138.19;;;4.09;95.37
51297;BME280;37380;45.186;9.792;2024-02-21T06:39:37;102138.91;;;4.14;94.47
51297;BME280;37380;45.186;9.792;2024-02-21T06:42:04;102138.06;;;4.17;93.74
51297;BME280;37380;45.186;9.792;2024-02-21T06:44:31;102139.69;;;4.14;94.10
51297;BME280;37380;45.186;9.792;2024-02-21T06:47:02;102152.75;;;4.10;93.78
51297;BME280;37380;45.186;9.792;2024-02-21T06:49:29;102146.13;;;4.07;93.58
51297;BME280;37380;45.186;9.792;2024-02-21T06:51:56;102155.59;;;4.26;92.57
51297;BME280;37380;45.186;9.792;2024-02-21T06:54:23;102154.75;;;4.29;92.32
51297;BME280;37380;45.186;9.792;2024-02-21T06:56:50;102145.88;;;4.18;91.22
51297;BME280;37380;45.186;9.792;2024-02-21T06:59:17;102149.28;;;4.06;91.46
51297;BME280;37380;45.186;9.792;2024-02-21T07:01:49;102158.91;;;4.37;90.58
51297;BME280;37380;45.186;9.792;2024-02-21T07:04:16;102157.06;;;4.50;91.26
51297;BME280;37380;45.186;9.792;2024-02-21T07:06:43;102176.66;;;4.36;88.22
51297;BME280;37380;45.186;9.792;2024-02-21T07:09:11;102180.34;;;4.30;88.59
51297;BME280;37380;45.186;9.792;2024-02-21T07:11:38;102175.72;;;4.23;89.58
51297;BME280;37380;45.186;9.792;2024-02-21T07:14:05;102170.41;;;4.52;88.28
51297;BME280;37380;45.186;9.792;2024-02-21T07:16:33;102184.28;;;4.68;87.98
51297;BME280;37380;45.186;9.792;2024-02-21T07:19:00;102181.41;;;4.91;87.65
51297;BME280;37380;45.186;9.792;2024-02-21T07:21:27;102183.06;;;4.69;87.44
51297;BME280;37380;45.186;9.792;2024-02-21T07:23:55;102193.47;;;4.81;87.55
51297;BME280;37380;45.186;9.792;2024-02-21T07:26:21;102197.34;;;4.84;87.05
51297;BME280;37380;45.186;9.792;2024-02-21T07:28:49;102197.81;;;4.98;87.37
51297;BME280;37380;45.186;9.792;2024-02-21T07:31:16;102190.50;;;5.08;87.96
51297;BME280;37380;45.186;9.792;2024-02-21T07:33:45;102196.94;;;5.37;87.76
51297;BME280;37380;45.186;9.792;2024-02-21T07:36:14;102195.63;;;5.41;87.16
51297;BME280;37380;45.186;9.792;2024-02-21T07:38:41;102195.88;;;5.47;86.94
51297;BME280;37380;45.186;9.792;2024-02-21T07:41:09;102196.50;;;5.71;86.57
51297;BME280;37380;45.186;9.792;2024-02-21T07:43:36;102190.34;;;5.79;85.58
51297;BME280;37380;45.186;9.792;2024-02-21T07:46:03;102190.44;;;5.92;86.11
51297;BME280;37380;45.186;9.792;2024-02-21T07:48:30;102195.94;;;5.76;86.23
51297;BME280;37380;45.186;9.792;2024-02-21T07:51:01;102186.38;;;6.25;84.73
51297;BME280;37380;45.186;9.792;2024-02-21T07:53:28;102192.06;;;6.34;83.78
51297;BME280;37380;45.186;9.792;2024-02-21T07:55:55;102196.41;;;6.48;84.09
51297;BME280;37380;45.186;9.792;2024-02-21T07:58:22;102200.06;;;6.45;84.48
51297;BME280;37380;45.186;9.792;2024-02-21T08:00:50;102200.66;;;6.65;83.61
51297;BME280;37380;45.186;9.792;2024-02-21T08:03:17;102197.38;;;6.83;83.87
51297;BME280;37380;45.186;9.792;2024-02-21T08:05:44;102212.13;;;7.05;82.97
51297;BME280;37380;45.186;9.792;2024-02-21T08:08:12;102200.06;;;7.36;82.46
51297;BME280;37380;45.186;9.792;2024-02-21T08:10:45;102200.56;;;7.69;79.72
51297;BME280;37380;45.186;9.792;2024-02-21T08:13:12;102200.78;;;7.62;80.12
51297;BME280;37380;45.186;9.792;2024-02-21T08:15:39;102203.81;;;8.02;80.08
51297;BME280;37380;45.186;9.792;2024-02-21T08:18:08;102199.44;;;8.13;79.41
51297;BME280;37380;45.186;9.792;2024-02-21T08:20:35;102200.97;;;8.27;82.73
51297;BME280;37380;45.186;9.792;2024-02-21T08:23:02;102199.91;;;8.77;80.42
51297;BME280;37380;45.186;9.792;2024-02-21T08:25:30;102200.63;;;8.90;79.89
51297;BME280;37380;45.186;9.792;2024-02-21T08:27:59;102202.78;;;9.26;78.88
51297;BME280;37380;45.186;9.792;2024-02-21T08:30:26;102213.06;;;9.56;77.53
51297;BME280;37380;45.186;9.792;2024-02-21T08:32:53;102215.94;;;9.43;78.99
51297;BME280;37380;45.186;9.792;2024-02-21T08:35:21;102209.63;;;9.43;78.43
51297;BME280;37380;45.186;9.792;2024-02-21T08:37:51;102209.16;;;9.44;79.75
51297;BME280;37380;45.186;9.792;2024-02-21T08:40:18;102216.50;;;9.20;75.34
51297;BME280;37380;45.186;9.792;2024-02-21T08:42:48;102209.50;;;9.56;74.90
51297;BME280;37380;45.186;9.792;2024-02-21T08:45:15;102204.91;;;9.71;75.97
51297;BME280;37380;45.186;9.792;2024-02-21T08:47:46;102214.03;;;9.80;78.12
51297;BME280;37380;45.186;9.792;2024-02-21T08:50:15;102203.09;;;9.86;77.57
51297;BME280;37380;45.186;9.792;2024-02-21T08:52:53;102202.53;;;9.42;75.55
51297;BME280;37380;45.186;9.792;2024-02-21T08:55:23;102201.19;;;9.65;74.92
51297;BME280;37380;45.186;9.792;2024-02-21T08:57:51;102203.41;;;9.79;74.60
51297;BME280;37380;45.186;9.792;2024-02-21T09:00:18;102205.47;;;9.47;74.83
51297;BME280;37380;45.186;9.792;2024-02-21T09:02:49;102202.81;;;9.35;75.32
51297;BME280;37380;45.186;9.792;2024-02-21T09:05:16;102203.38;;;9.21;74.69
51297;BME280;37380;45.186;9.792;2024-02-21T09:07:43;102206.78;;;9.25;73.33
51297;BME280;37380;45.186;9.792;2024-02-21T09:10:10;102196.66;;;9.49;72.39
51297;BME280;37380;45.186;9.792;2024-02-21T09:12:38;102196.19;;;9.41;72.83
51297;BME280;37380;45.186;9.792;2024-02-21T09:15:05;102192.13;;;10.09;71.16
51297;BME280;37380;45.186;9.792;2024-02-21T09:17:32;102195.22;;;10.30;70.17
51297;BME280;37380;45.186;9.792;2024-02-21T09:19:59;102196.31;;;10.05;70.78
51297;BME280;37380;45.186;9.792;2024-02-21T09:22:30;102190.88;;;10.01;70.71
51297;BME280;37380;45.186;9.792;2024-02-21T09:25:01;102184.22;;;9.90;71.02
51297;BME280;37380;45.186;9.792;2024-02-21T09:27:30;102186.25;;;10.53;69.60
51297;BME280;37380;45.186;9.792;2024-02-21T09:29:57;102182.94;;;10.81;69.32
51297;BME280;37380;45.186;9.792;2024-02-21T09:32:24;102182.72;;;10.94;69.08
51297;BME280;37380;45.186;9.792;2024-02-21T09:34:51;102182.00;;;11.26;66.65
51297;BME280;37380;45.186;9.792;2024-02-21T09:37:25;102175.63;;;11.26;66.81
51297;BME280;37380;45.186;9.792;2024-02-21T09:39:53;102179.63;;;11.34;67.62
51297;BME280;37380;45.186;9.792;2024-02-21T09:42:20;102183.03;;;11.62;65.78
51297;BME280;37380;45.186;9.792;2024-02-21T09:44:50;102173.69;;;11.74;65.67
51297;BME280;37380;45.186;9.792;2024-02-21T09:47:22;102174.13;;;11.48;66.77
51297;BME280;37380;45.186;9.792;2024-02-21T09:49:51;102175.38;;;11.95;65.61
51297;BME280;37380;45.186;9.792;2024-02-21T09:52:19;102174.06;;;12.05;66.96
51297;BME280;37380;45.186;9.792;2024-02-21T09:54:47;102183.47;;;12.31;65.75
51297;BME280;37380;45.186;9.792;2024-02-21T09:57:15;102184.00;;;11.82;66.03
51297;BME280;37380;45.186;9.792;2024-02-21T09:59:44;102181.75;;;11.72;66.33
51297;BME280;37380;45.186;9.792;2024-02-21T10:02:12;102185.81;;;11.38;68.12
51297;BME280;37380;45.186;9.792;2024-02-21T10:04:40;102189.41;;;11.86;68.32
51297;BME280;37380;45.186;9.792;2024-02-21T10:07:08;102188.38;;;12.36;64.92
51297;BME280;37380;45.186;9.792;2024-02-21T10:09:36;102184.50;;;12.19;66.16
51297;BME280;37380;45.186;9.792;2024-02-21T10:12:11;102183.59;;;11.98;66.57
51297;BME280;37380;45.186;9.792;2024-02-21T10:14:39;102184.69;;;11.92;67.81
51297;BME280;37380;45.186;9.792;2024-02-21T10:17:07;102177.44;;;12.09;68.53
51297;BME280;37380;45.186;9.792;2024-02-21T10:19:38;102189.38;;;12.77;66.56
51297;BME280;37380;45.186;9.792;2024-02-21T10:22:08;102181.16;;;12.44;64.72
51297;BME280;37380;45.186;9.792;2024-02-21T10:24:37;102177.81;;;12.69;64.41
51297;BME280;37380;45.186;9.792;2024-02-21T10:27:09;102187.44;;;12.68;64.10
51297;BME280;37380;45.186;9.792;2024-02-21T10:29:40;102184.16;;;12.55;62.78
51297;BME280;37380;45.186;9.792;2024-02-21T10:32:13;102180.28;;;12.97;62.19
51297;BME280;37380;45.186;9.792;2024-02-21T10:34:41;102176.13;;;13.21;61.74
51297;BME280;37380;45.186;9.792;2024-02-21T10:37:11;102181.25;;;13.23;61.10
51297;BME280;37380;45.186;9.792;2024-02-21T10:39:42;102179.69;;;12.93;60.80
51297;BME280;37380;45.186;9.792;2024-02-21T10:42:11;102180.22;;;13.06;60.29
51297;BME280;37380;45.186;9.792;2024-02-21T10:44:40;102184.38;;;13.65;58.85
51297;BME280;37380;45.186;9.792;2024-02-21T10:47:10;102181.81;;;13.47;58.98
51297;BME280;37380;45.186;9.792;2024-02-21T10:49:41;102172.84;;;13.78;59.78
51297;BME280;37380;45.186;9.792;2024-02-21T10:53:24;102162.78;;;14.32;59.34
51297;BME280;37380;45.186;9.792;2024-02-21T10:55:42;102162.66;;;14.72;57.50
51297;BME280;37380;45.186;9.792;2024-02-21T10:58:11;102165.59;;;14.89;56.55
51297;BME280;37380;45.186;9.792;2024-02-21T11:00:39;102157.19;;;14.32;56.01
51297;BME280;37380;45.186;9.792;2024-02-21T11:03:07;102158.19;;;13.88;58.24
51297;BME280;37380;45.186;9.792;2024-02-21T11:05:35;102154.69;;;13.93;57.17
51297;BME280;37380;45.186;9.792;2024-02-21T11:08:05;102148.81;;;13.91;57.66
51297;BME280;37380;45.186;9.792;2024-02-21T11:10:36;102136.59;;;14.14;56.50
51297;BME280;37380;45.186;9.792;2024-02-21T11:13:07;102130.56;;;14.22;57.04
51297;BME280;37380;45.186;9.792;2024-02-21T11:15:36;102136.91;;;13.96;57.42
51297;BME280;37380;45.186;9.792;2024-02-21T11:18:03;102123.41;;;13.55;57.62
51297;BME280;37380;45.186;9.792;2024-02-21T11:20:37;102112.59;;;13.82;57.47
51297;BME280;37380;45.186;9.792;2024-02-21T11:23:05;102112.66;;;14.13;58.53
51297;BME280;37380;45.186;9.792;2024-02-21T11:25:33;102107.28;;;14.36;59.96
51297;BME280;37380;45.186;9.792;2024-02-21T11:28:03;102099.53;;;14.51;59.69
51297;BME280;37380;45.186;9.792;2024-02-21T11:30:31;102091.31;;;14.73;56.98
51297;BME280;37380;45.186;9.792;2024-02-21T11:33:01;102099.44;;;14.40;59.43
51297;BME280;37380;45.186;9.792;2024-02-21T11:35:33;102088.91;;;14.60;59.68
51297;BME280;37380;45.186;9.792;2024-02-21T11:38:13;102092.88;;;14.48;59.06
51297;BME280;37380;45.186;9.792;2024-02-21T11:40:45;102086.84;;;14.92;59.00
51297;BME280;37380;45.186;9.792;2024-02-21T11:43:12;102077.06;;;15.19;58.51
51297;BME280;37380;45.186;9.792;2024-02-21T11:45:39;102066.38;;;15.23;56.69
51297;BME280;37380;45.186;9.792;2024-02-21T11:48:07;102065.84;;;14.45;56.30
51297;BME280;37380;45.186;9.792;2024-02-21T11:50:35;102079.25;;;14.36;57.52
51297;BME280;37380;45.186;9.792;2024-02-21T11:53:03;102065.63;;;14.85;56.64
51297;BME280;37380;45.186;9.792;2024-02-21T11:55:31;102061.47;;;14.13;58.38
51297;BME280;37380;45.186;9.792;2024-02-21T11:57:58;102047.97;;;14.37;57.49
51297;BME280;37380;45.186;9.792;2024-02-21T12:00:25;102048.09;;;14.54;58.51
51297;BME280;37380;45.186;9.792;2024-02-21T12:02:52;102049.06;;;13.94;58.39
51297;BME280;37380;45.186;9.792;2024-02-21T12:05:21;102041.19;;;13.72;59.77
51297;BME280;37380;45.186;9.792;2024-02-21T12:07:48;102032.38;;;13.79;59.64
51297;BME280;37380;45.186;9.792;2024-02-21T12:10:15;102024.22;;;14.07;59.81
51297;BME280;37380;45.186;9.792;2024-02-21T12:12:42;102024.78;;;14.11;60.55
51297;BME280;37380;45.186;9.792;2024-02-21T12:15:10;102027.34;;;14.40;59.56
51297;BME280;37380;45.186;9.792;2024-02-21T12:17:37;102019.97;;;14.43;59.31
51297;BME280;37380;45.186;9.792;2024-02-21T12:20:06;102009.94;;;14.05;60.25
51297;BME280;37380;45.186;9.792;2024-02-21T12:22:38;101997.63;;;14.23;58.96
51297;BME280;37380;45.186;9.792;2024-02-21T12:25:19;101992.25;;;14.19;59.24
51297;BME280;37380;45.186;9.792;2024-02-21T12:27:47;101985.91;;;14.18;59.85
51297;BME280;37380;45.186;9.792;2024-02-21T12:30:17;101984.84;;;14.16;59.59
51297;BME280;37380;45.186;9.792;2024-02-21T12:32:45;101971.13;;;14.24;59.71
51297;BME280;37380;45.186;9.792;2024-02-21T12:35:12;101968.84;;;14.22;58.63
51297;BME280;37380;45.186;9.792;2024-02-21T12:37:41;101967.00;;;14.13;59.56
51297;BME280;37380;45.186;9.792;2024-02-21T12:40:08;101957.19;;;14.29;59.18
51297;BME280;37380;45.186;9.792;2024-02-21T12:42:37;101956.25;;;14.06;60.32
51297;BME280;37380;45.186;9.792;2024-02-21T12:45:06;101952.53;;;14.52;58.54
51297;BME280;37380;45.186;9.792;2024-02-21T12:47:33;101953.75;;;14.45;58.61
51297;BME280;37380;45.186;9.792;2024-02-21T12:50:00;101953.28;;;14.52;59.41
51297;BME280;37380;45.186;9.792;2024-02-21T12:52:30;101950.00;;;14.54;59.55
51297;BME280;37380;45.186;9.792;2024-02-21T12:54:58;101946.19;;;14.62;59.33
51297;BME280;37380;45.186;9.792;2024-02-21T12:57:25;101942.88;;;14.58;58.73
51297;BME280;37380;45.186;9.792;2024-02-21T12:59:54;101939.03;;;14.56;59.00
51297;BME280;37380;45.186;9.792;2024-02-21T13:02:21;101926.97;;;14.39;60.05